Time;durP1;ratioP1;P1;durP2;ratioP2;P2;SDS_P1;SDS_P2;PMS_P1;PMS_P2;Temp;Humidity;BMP_temperature;BMP_pressure;BME280_temperature;BME280_humidity;BME280_pressure;Samples;Min_cycle;Max_cycle;Signal;HPM_P1;HPM_P2
2021/06/05 00:00:38;;;;;;;3.20;2.85;;;;;;;11.39;73.40;94167.75;5090117;28;20028;-37
2021/06/05 00:03:05;;;;;;;5.00;3.22;;;;;;;11.44;73.39;94166.88;5090405;28;20062;-40
2021/06/05 00:05:39;;;;;;;3.00;2.72;;;;;;;11.21;73.74;94165.16;5090397;28;20107;-40
2021/06/05 00:08:07;;;;;;;3.90;3.08;;;;;;;11.11;73.91;94170.38;5089777;28;20028;-43
2021/06/05 00:10:37;;;;;;;4.65;3.03;;;;;;;11.14;73.71;94174.09;5089828;28;20112;-40
2021/06/05 00:13:05;;;;;;;5.07;3.30;;;;;;;11.08;74.25;94167.94;5090110;28;20027;-40
2021/06/05 00:15:35;;;;;;;3.85;2.60;;;;;;;11.07;74.00;94166.44;5089996;28;20085;-40
2021/06/05 00:18:01;;;;;;;4.45;3.33;;;;;;;10.97;74.20;94165.41;5090088;28;20033;-40
2021/06/05 00:20:30;;;;;;;6.00;4.32;;;;;;;10.72;75.51;94166.94;5089806;28;20024;-42
2021/06/05 00:23:01;;;;;;;6.18;4.40;;;;;;;10.76;76.09;94172.88;5089581;28;20093;-40
2021/06/05 00:25:29;;;;;;;7.70;4.07;;;;;;;10.95;75.09;94174.25;5089553;28;20020;-41
2021/06/05 00:27:55;;;;;;;9.43;4.95;;;;;;;10.95;74.87;94159.69;5089453;28;20114;-40
2021/06/05 00:30:21;;;;;;;5.30;4.35;;;;;;;10.94;74.47;94166.47;5089757;28;20016;-40
2021/06/05 00:32:46;;;;;;;13.13;7.38;;;;;;;11.01;74.20;94165.81;5069480;28;20047;-40
2021/06/05 00:35:12;;;;;;;7.88;4.53;;;;;;;10.75;74.48;94168.63;5069591;28;20020;-39
2021/06/05 00:37:38;;;;;;;8.50;5.55;;;;;;;10.65;74.87;94168.31;5069451;28;20457;-41
2021/06/05 00:40:05;;;;;;;4.75;3.88;;;;;;;10.49;75.73;94161.84;5068826;28;20049;-38
2021/06/05 00:42:31;;;;;;;4.30;3.40;;;;;;;10.39;76.50;94157.28;5069474;28;20492;-38
2021/06/05 00:44:56;;;;;;;10.00;7.13;;;;;;;10.43;76.97;94158.44;5069532;28;20055;-40
2021/06/05 00:47:22;;;;;;;8.23;6.05;;;;;;;10.46;76.44;94160.13;5069496;28;20492;-42
2021/06/05 00:49:47;;;;;;;10.25;5.13;;;;;;;10.61;75.81;94160.34;5069106;28;20549;-42
2021/06/05 00:52:16;;;;;;;8.48;4.75;;;;;;;10.70;74.95;94159.16;5069016;28;20587;-40
2021/06/05 00:54:41;;;;;;;3.63;2.42;;;;;;;10.62;74.76;94155.56;5085092;28;20021;-39
2021/06/05 00:57:07;;;;;;;1.73;1.48;;;;;;;10.44;73.71;94148.13;5069346;28;20047;-40
2021/06/05 00:59:33;;;;;;;6.70;3.03;;;;;;;10.52;73.24;94158.03;5069063;28;20086;-39
2021/06/05 01:01:59;;;;;;;4.07;3.13;;;;;;;10.41;73.58;94154.72;5072735;28;20499;-40
2021/06/05 01:04:24;;;;;;;5.95;3.50;;;;;;;10.41;73.93;94158.25;5073316;28;20067;-40
2021/06/05 01:06:56;;;;;;;13.57;3.65;;;;;;;10.52;73.48;94152.50;5088850;28;20070;-38
2021/06/05 01:09:37;;;;;;;14.23;3.88;;;;;;;10.44;73.84;94143.38;5089147;28;20486;-39
2021/06/05 01:12:19;;;;;;;3.83;2.67;;;;;;;10.21;74.04;94147.06;5071725;28;20557;-38
2021/06/05 01:14:49;;;;;;;3.58;2.70;;;;;;;9.98;74.97;94149.47;5088683;28;20020;-38
2021/06/05 01:17:18;;;;;;;4.00;2.67;;;;;;;9.93;75.59;94153.06;5073133;28;20029;-38
2021/06/05 01:19:57;;;;;;;3.00;2.75;;;;;;;9.84;75.70;94156.22;5088365;28;20082;-39
2021/06/05 01:23:01;;;;;;;4.57;2.83;;;;;;;9.75;76.65;94157.34;5088739;28;20048;-39
2021/06/05 01:25:48;;;;;;;2.83;2.38;;;;;;;9.66;76.91;94157.00;5072887;28;20492;-40
2021/06/05 01:28:20;;;;;;;3.28;2.92;;;;;;;9.63;77.72;94147.03;5072706;28;20032;-39
2021/06/05 01:30:49;;;;;;;2.72;1.70;;;;;;;9.62;78.40;94159.31;5091205;28;20769;-38
2021/06/05 01:33:17;;;;;;;3.13;2.33;;;;;;;9.64;78.58;94154.03;5093089;28;20110;-39
2021/06/05 01:35:43;;;;;;;2.50;1.90;;;;;;;9.66;79.49;94157.00;5093100;28;20109;-38
2021/06/05 01:38:11;;;;;;;2.38;1.92;;;;;;;9.67;79.14;94150.22;5074044;28;20431;-39
2021/06/05 01:40:37;;;;;;;3.92;2.63;;;;;;;9.73;79.18;94153.63;5091588;28;20028;-40
2021/06/05 01:43:05;;;;;;;2.05;1.83;;;;;;;9.71;78.83;94153.41;5091704;28;20016;-39
2021/06/05 01:45:35;;;;;;;2.03;1.83;;;;;;;9.87;77.82;94149.66;5091389;28;20031;-38
2021/06/05 01:48:01;;;;;;;2.55;1.85;;;;;;;10.00;76.59;94152.44;5091554;28;20020;-39
2021/06/05 01:50:29;;;;;;;2.17;1.95;;;;;;;10.09;75.94;94154.03;5091439;28;20627;-44
2021/06/05 01:52:58;;;;;;;2.30;2.13;;;;;;;9.99;76.33;94150.94;5091374;28;20059;-38
2021/06/05 01:55:28;;;;;;;3.45;2.25;;;;;;;10.00;76.34;94155.19;5092497;28;20036;-37
2021/06/05 01:57:59;;;;;;;2.95;2.05;;;;;;;9.98;76.65;94157.00;5092309;28;20529;-37
2021/06/05 02:00:33;;;;;;;3.65;1.80;;;;;;;9.90;76.30;94140.31;5091282;28;20031;-38
2021/06/05 02:02:59;;;;;;;7.97;2.67;;;;;;;10.08;76.26;94158.06;5092534;28;20408;-38
2021/06/05 02:05:27;;;;;;;3.67;2.60;;;;;;;10.01;76.38;94139.38;5092490;28;20028;-38
2021/06/05 02:07:53;;;;;;;7.82;3.28;;;;;;;9.97;75.99;94141.69;5091973;28;20024;-40
2021/06/05 02:10:20;;;;;;;2.95;2.58;;;;;;;9.99;76.19;94147.44;5092269;28;20023;-39
2021/06/05 02:12:49;;;;;;;2.70;2.10;;;;;;;9.88;76.07;94148.38;5090646;28;20024;-39
2021/06/05 02:15:24;;;;;;;3.42;2.38;;;;;;;10.02;75.55;94144.38;5092028;28;20074;-40
2021/06/05 02:17:50;;;;;;;10.90;3.65;;;;;;;9.99;75.32;94137.16;5091070;28;20406;-39
2021/06/05 02:20:23;;;;;;;4.53;3.08;;;;;;;9.83;76.31;94141.69;5091593;28;20034;-39
2021/06/05 02:22:49;;;;;;;4.70;2.35;;;;;;;9.94;76.06;94146.25;5091879;28;20618;-39
2021/06/05 02:25:17;;;;;;;2.90;2.65;;;;;;;9.90;76.14;94146.56;5092097;28;20028;-39
2021/06/05 02:27:43;;;;;;;9.20;3.08;;;;;;;9.95;75.55;94150.50;5090562;28;20026;-44
2021/06/05 02:30:13;;;;;;;5.57;2.72;;;;;;;9.99;75.57;94142.66;5091603;28;20107;-38
2021/06/05 02:32:39;;;;;;;4.90;3.40;;;;;;;10.06;74.88;94135.78;5091327;28;20654;-39
2021/06/05 02:35:07;;;;;;;3.83;2.03;;;;;;;9.97;75.57;94145.22;5090799;28;20430;-38
2021/06/05 02:37:33;;;;;;;6.03;2.47;;;;;;;10.03;75.01;94145.84;5091595;28;20473;-39
2021/06/05 02:40:00;;;;;;;3.67;2.80;;;;;;;9.98;74.97;94149.47;5091378;28;20044;-38
2021/06/05 02:42:26;;;;;;;6.47;2.95;;;;;;;9.81;75.01;94154.53;5090834;28;20479;-38
2021/06/05 02:44:55;;;;;;;7.22;3.90;;;;;;;9.64;75.90;94146.50;5090729;28;20028;-38
2021/06/05 02:47:21;;;;;;;;;;;;;;;9.61;75.83;94146.81;5091084;28;20027;-39
2021/06/05 02:49:48;;;;;;;6.10;3.30;;;;;;;9.49;75.69;94153.75;5090444;28;20315;-38
2021/06/05 02:52:28;;;;;;;9.07;2.60;;;;;;;9.39;75.97;94144.41;5091570;28;20035;-39
2021/06/05 02:55:10;;;;;;;6.43;3.03;;;;;;;9.30;75.55;94147.53;5091684;28;20020;-38
2021/06/05 02:57:36;;;;;;;1.73;1.63;;;;;;;9.27;76.11;94143.81;5090250;28;20038;-38
2021/06/05 03:00:08;;;;;;;2.42;1.83;;;;;;;9.43;75.62;94145.59;5070922;28;20416;-38
2021/06/05 03:02:34;;;;;;;4.85;2.97;;;;;;;9.51;75.67;94148.47;5071048;28;20094;-38
2021/06/05 03:04:59;;;;;;;2.92;2.05;;;;;;;9.56;76.28;94155.91;5070896;28;20020;-38
2021/06/05 03:07:25;;;;;;;3.58;2.25;;;;;;;9.50;75.97;94155.25;5070738;28;20032;-38
2021/06/05 03:09:50;;;;;;;2.88;2.28;;;;;;;9.52;75.95;94149.97;5070640;28;20074;-38
2021/06/05 03:12:16;;;;;;;1.98;1.88;;;;;;;9.48;76.36;94160.56;5070573;28;20085;-38
2021/06/05 03:14:41;;;;;;;2.50;2.15;;;;;;;9.61;75.98;94158.59;5070890;28;20024;-38
2021/06/05 03:17:09;;;;;;;3.92;2.40;;;;;;;9.77;75.19;94159.59;5084827;28;20028;-37
2021/06/05 03:19:35;;;;;;;9.40;3.03;;;;;;;9.63;75.33;94139.53;5090614;28;20032;-37
2021/06/05 03:22:00;;;;;;;5.15;3.10;;;;;;;9.62;75.72;94156.56;5090280;28;20399;-38
2021/06/05 03:24:26;;;;;;;2.90;2.65;;;;;;;9.71;75.69;94164.44;5090160;28;20024;-38
2021/06/05 03:26:53;;;;;;;4.47;3.22;;;;;;;9.84;75.32;94165.25;5090554;28;20020;-37
2021/06/05 03:29:18;;;;;;;2.67;2.47;;;;;;;9.83;75.30;94157.50;5090783;28;20027;-37
2021/06/05 03:31:44;;;;;;;3.15;1.90;;;;;;;9.73;75.32;94162.66;5090174;28;20423;-37
2021/06/05 03:34:09;;;;;;;4.32;2.95;;;;;;;9.64;75.23;94154.03;5090246;28;20028;-37
2021/06/05 03:36:35;;;;;;;13.73;3.15;;;;;;;9.52;75.61;94163.75;5088952;28;20471;-37
2021/06/05 03:39:01;;;;;;;3.20;2.90;;;;;;;9.33;76.56;94155.53;5089916;28;20511;-38
2021/06/05 03:41:26;;;;;;;3.75;2.03;;;;;;;9.38;76.62;94167.72;5089866;28;20046;-38
2021/06/05 03:43:52;;;;;;;2.40;2.20;;;;;;;9.45;76.26;94161.59;5089514;28;20099;-38
2021/06/05 03:46:17;;;;;;;2.53;1.80;;;;;;;9.48;76.35;94164.06;5090113;28;20058;-39
2021/06/05 03:48:43;;;;;;;1.50;1.40;;;;;;;9.62;76.06;94164.84;5088693;28;20407;-38
2021/06/05 03:51:09;;;;;;;1.40;1.30;;;;;;;9.57;76.30;94168.44;5089742;28;20107;-38
2021/06/05 03:53:35;;;;;;;2.53;2.33;;;;;;;9.74;75.96;94169.69;5089855;28;20020;-37
2021/06/05 03:56:01;;;;;;;3.58;2.22;;;;;;;9.64;75.61;94154.78;5089578;28;20024;-38
2021/06/05 03:58:39;;;;;;;2.95;2.55;;;;;;;9.82;75.47;94156.75;5089852;28;20032;-39
2021/06/05 04:01:17;;;;;;;6.28;1.90;;;;;;;9.83;75.43;94146.47;5089113;28;20028;-38
2021/06/05 04:03:43;;;;;;;5.93;3.03;;;;;;;10.01;75.76;94162.19;5088821;28;20077;-41
2021/06/05 04:06:10;;;;;;;3.10;2.60;;;;;;;10.14;75.55;94159.47;5089687;28;20055;-38
2021/06/05 04:08:36;;;;;;;9.60;3.35;;;;;;;10.16;75.19;94172.75;5089621;28;20028;-39
2021/06/05 04:11:03;;;;;;;4.97;3.05;;;;;;;10.23;75.89;94161.06;5089848;28;20529;-37
2021/06/05 04:13:30;;;;;;;3.60;2.70;;;;;;;10.29;75.74;94154.19;5089360;28;20038;-38
2021/06/05 04:15:55;;;;;;;1.65;1.55;;;;;;;10.21;75.99;94150.59;5089398;28;20153;-37
2021/06/05 04:18:25;;;;;;;3.13;2.13;;;;;;;10.18;76.05;94148.16;5089692;28;20032;-38
2021/06/05 04:20:51;;;;;;;4.85;3.08;;;;;;;10.21;75.49;94133.28;5089787;28;20035;-37
2021/06/05 04:23:17;;;;;;;5.85;4.47;;;;;;;10.40;75.30;94148.47;5089650;28;20024;-38
2021/06/05 04:25:43;;;;;;;12.95;4.40;;;;;;;10.48;75.64;94143.78;5089937;28;20479;-38
2021/06/05 04:28:11;;;;;;;13.98;3.33;;;;;;;10.63;75.50;94148.78;5089612;28;20031;-38
2021/06/05 04:30:38;;;;;;;6.25;3.10;;;;;;;10.66;75.99;94145.69;5089768;28;20024;-37
2021/06/05 04:33:04;;;;;;;11.98;6.47;;;;;;;10.68;76.25;94138.91;5089989;28;20038;-37
2021/06/05 04:35:30;;;;;;;8.02;4.35;;;;;;;10.67;76.55;94135.41;5089652;28;20027;-37
2021/06/05 04:37:56;;;;;;;2.65;2.45;;;;;;;10.58;77.39;94122.78;5089374;28;20020;-39
2021/06/05 04:40:22;;;;;;;2.10;1.98;;;;;;;10.75;77.89;94135.47;5089540;28;20438;-37
2021/06/05 04:42:48;;;;;;;3.50;2.30;;;;;;;10.94;78.32;94131.31;5089355;28;20153;-35
2021/06/05 04:45:14;;;;;;;2.60;2.00;;;;;;;10.99;78.70;94135.22;5089719;28;20392;-34
2021/06/05 04:47:39;;;;;;;1.65;1.52;;;;;;;11.14;78.45;94138.16;5089696;28;20023;-35
2021/06/05 04:50:09;;;;;;;2.10;1.90;;;;;;;11.26;78.31;94131.13;5089215;28;20020;-35
2021/06/05 04:52:35;;;;;;;2.85;2.55;;;;;;;11.29;78.72;94130.78;5089585;28;20024;-35
2021/06/05 04:55:01;;;;;;;2.05;1.90;;;;;;;11.40;78.33;94124.25;5089482;28;20111;-36
2021/06/05 04:57:26;;;;;;;2.78;2.28;;;;;;;11.56;78.00;94125.16;5088920;28;20030;-35
2021/06/05 04:59:52;;;;;;;5.07;1.95;;;;;;;11.66;77.91;94123.41;5088473;28;20012;-35
2021/06/05 05:02:17;;;;;;;1.73;1.63;;;;;;;11.78;77.69;94132.94;5088758;28;20051;-38
2021/06/05 05:04:43;;;;;;;1.90;1.73;;;;;;;11.86;77.70;94120.66;5089020;28;20026;-37
2021/06/05 05:07:10;;;;;;;1.85;1.75;;;;;;;11.96;77.89;94116.13;5089072;28;20024;-38
2021/06/05 05:09:35;;;;;;;3.30;2.20;;;;;;;12.08;77.56;94116.59;5088692;28;20023;-38
2021/06/05 05:12:02;;;;;;;2.17;1.90;;;;;;;12.14;77.48;94117.94;5088880;28;20024;-38
2021/06/05 05:14:28;;;;;;;2.53;2.28;;;;;;;12.22;77.36;94112.44;5088949;28;20027;-37
2021/06/05 05:16:53;;;;;;;2.72;2.47;;;;;;;12.17;78.08;94105.75;5091939;28;20028;-38
2021/06/05 05:19:19;;;;;;;3.25;2.03;;;;;;;12.17;79.52;94114.06;5087980;28;20024;-38
2021/06/05 05:21:44;;;;;;;2.85;2.17;;;;;;;12.20;79.65;94106.69;5087801;28;20254;-38
2021/06/05 05:24:11;;;;;;;2.30;1.92;;;;;;;12.28;79.69;94104.00;5087718;28;20027;-38
2021/06/05 05:26:37;;;;;;;3.25;2.38;;;;;;;12.36;79.72;94099.25;5088715;28;20150;-38
2021/06/05 05:29:03;;;;;;;3.90;2.63;;;;;;;12.32;80.22;94090.53;5098096;28;20106;-37
2021/06/05 05:31:29;;;;;;;2.38;2.17;;;;;;;12.47;80.10;94090.63;5102702;28;20023;-37
2021/06/05 05:33:55;;;;;;;3.90;2.55;;;;;;;12.60;79.27;94084.97;5109218;28;20414;-38
2021/06/05 05:36:25;;;;;;;2.53;2.03;;;;;;;12.70;78.99;94089.44;5109552;28;20047;-37
2021/06/05 05:38:51;;;;;;;4.70;3.55;;;;;;;12.79;78.53;94083.41;5109135;28;20069;-36
2021/06/05 05:41:19;;;;;;;10.13;6.25;;;;;;;12.92;77.61;94088.06;5109304;28;20023;-37
2021/06/05 05:43:44;;;;;;;4.05;3.70;;;;;;;12.98;77.22;94074.78;5109560;28;20031;-38
2021/06/05 05:46:10;;;;;;;3.28;2.47;;;;;;;13.08;77.24;94067.44;5101453;28;20591;-37
2021/06/05 05:48:37;;;;;;;2.47;2.28;;;;;;;13.15;77.12;94077.06;5109542;28;20114;-38
2021/06/05 05:51:04;;;;;;;6.57;2.22;;;;;;;13.28;74.90;94074.13;5096777;28;20023;-38
2021/06/05 05:53:30;;;;;;;4.07;3.70;;;;;;;13.26;74.13;94071.94;5092415;28;20511;-37
2021/06/05 05:55:56;;;;;;;3.40;2.30;;;;;;;13.37;74.67;94077.13;5092183;28;20088;-38
2021/06/05 05:58:24;;;;;;;6.28;2.50;;;;;;;13.62;74.29;94063.50;5092560;28;20016;-37
2021/06/05 06:00:51;;;;;;;2.95;2.15;;;;;;;13.78;72.30;94059.41;5092388;28;20031;-37
2021/06/05 06:03:17;;;;;;;2.85;2.00;;;;;;;13.82;72.49;94059.06;5092248;28;20020;-37
2021/06/05 06:05:43;;;;;;;3.28;1.80;;;;;;;13.61;70.99;94046.09;5092108;28;20027;-37
2021/06/05 06:08:12;;;;;;;2.38;2.08;;;;;;;13.91;70.35;94066.81;5092285;28;20032;-37
2021/06/05 06:10:40;;;;;;;3.47;2.08;;;;;;;13.99;71.94;94062.00;5092375;28;20016;-37
2021/06/05 06:13:07;;;;;;;1.92;1.75;;;;;;;14.03;72.68;94076.25;5092415;28;20621;-37
2021/06/05 06:15:33;;;;;;;3.33;2.35;;;;;;;14.09;74.21;94069.22;5092327;28;20399;-37
2021/06/05 06:17:59;;;;;;;2.08;1.92;;;;;;;14.13;75.10;94068.81;5091959;28;20024;-37
2021/06/05 06:20:40;;;;;;;2.40;2.00;;;;;;;14.28;74.47;94061.22;5091885;28;20020;-38
2021/06/05 06:23:06;;;;;;;2.50;2.30;;;;;;;14.46;74.27;94061.41;5071704;28;20111;-37
2021/06/05 06:25:34;;;;;;;4.78;3.08;;;;;;;14.57;74.21;94056.19;5071950;28;20125;-38
2021/06/05 06:28:00;;;;;;;3.45;2.85;;;;;;;14.70;74.11;94058.75;5071482;28;20036;-37
2021/06/05 06:30:29;;;;;;;8.88;2.90;;;;;;;14.75;75.08;94057.06;5076104;28;20020;-37
2021/06/05 06:32:55;;;;;;;2.47;1.85;;;;;;;14.88;74.04;94057.53;5091612;28;20023;-37
2021/06/05 06:35:25;;;;;;;3.47;2.13;;;;;;;15.03;74.34;94051.16;5091629;28;20016;-37
2021/06/05 06:37:51;;;;;;;7.78;2.28;;;;;;;14.86;74.71;94039.94;5091373;28;20027;-37
2021/06/05 06:40:21;;;;;;;3.95;1.92;;;;;;;15.01;74.42;94054.53;5091396;28;20012;-37
2021/06/05 06:42:46;;;;;;;3.67;2.35;;;;;;;15.04;73.97;94055.44;5090268;28;20530;-38
2021/06/05 06:45:12;;;;;;;2.88;2.13;;;;;;;15.09;74.90;94043.38;5091353;28;20028;-37
2021/06/05 06:47:38;;;;;;;3.55;1.90;;;;;;;15.06;73.71;94044.50;5090135;28;20106;-37
2021/06/05 06:50:06;;;;;;;1.60;1.40;;;;;;;14.93;72.43;94048.25;5090958;28;20028;-37
2021/06/05 06:52:31;;;;;;;1.52;1.42;;;;;;;14.87;73.00;94044.97;5091131;28;20032;-37
2021/06/05 06:54:57;;;;;;;1.55;1.45;;;;;;;14.89;72.84;94047.16;5091639;28;20024;-37
2021/06/05 06:57:22;;;;;;;2.30;1.75;;;;;;;15.02;72.49;94046.91;5091435;28;20027;-37
2021/06/05 06:59:48;;;;;;;2.97;2.22;;;;;;;15.10;72.17;94045.56;5091052;28;20021;-37
2021/06/05 07:02:14;;;;;;;7.45;2.00;;;;;;;15.07;70.82;94043.91;5090782;28;20032;-38
2021/06/05 07:04:39;;;;;;;2.10;1.67;;;;;;;15.08;72.68;94034.28;5091273;28;20017;-36
2021/06/05 07:07:05;;;;;;;2.38;2.10;;;;;;;15.28;73.06;94040.09;5091238;28;20035;-37
2021/06/05 07:09:32;;;;;;;2.22;2.00;;;;;;;15.37;72.94;94039.50;5090024;28;20096;-35
2021/06/05 07:11:59;;;;;;;4.03;2.08;;;;;;;15.55;73.65;94039.03;5089689;28;20103;-40
2021/06/05 07:14:25;;;;;;;2.17;1.70;;;;;;;15.83;72.80;94038.63;5089841;28;20030;-43
2021/06/05 07:19:42;;;;;;;2.03;1.73;;;;;;;17.10;67.64;94039.94;5117972;27;20519;-41
2021/06/05 07:22:08;;;;;;;2.38;1.80;;;;;;;17.34;66.46;94042.59;5105526;28;20058;-41
2021/06/05 07:24:33;;;;;;;3.17;1.80;;;;;;;17.34;65.57;94041.84;5106180;28;20422;-41
2021/06/05 07:26:59;;;;;;;2.17;1.85;;;;;;;17.46;66.32;94045.56;5105788;28;20028;-41
2021/06/05 07:29:25;;;;;;;5.82;1.70;;;;;;;17.89;65.96;94044.75;5105331;28;20015;-43
2021/06/05 07:31:52;;;;;;;2.20;1.95;;;;;;;18.15;61.71;94043.22;5104593;28;20051;-43
2021/06/05 07:34:21;;;;;;;2.58;2.13;;;;;;;18.38;62.45;94042.84;5105963;28;20016;-42
2021/06/05 07:36:52;;;;;;;4.50;1.88;;;;;;;19.15;59.97;94038.75;5105958;28;20054;-38
2021/06/05 07:39:22;;;;;;;2.13;1.88;;;;;;;20.28;58.02;94033.41;5103656;28;20023;-38
2021/06/05 07:41:48;;;;;;;1.90;1.80;;;;;;;;;;5105489;28;20099;-42
2021/06/05 07:44:14;;;;;;;1.63;1.52;;;;;;;22.63;49.95;94035.69;5105632;28;20173;-40
2021/06/05 07:46:41;;;;;;;2.15;1.30;;;;;;;23.24;46.14;94031.44;5105434;28;20039;-41
2021/06/05 07:49:07;;;;;;;2.22;1.17;;;;;;;24.52;43.11;94028.53;5105431;28;20532;-41
2021/06/05 07:51:32;;;;;;;1.30;1.17;;;;;;;25.92;40.73;94036.91;5103069;28;20020;-43
2021/06/05 07:53:58;;;;;;;1.60;1.27;;;;;;;26.55;39.54;94035.53;5105432;28;20054;-40
2021/06/05 07:56:23;;;;;;;1.55;1.15;;;;;;;26.28;38.10;94047.06;5105217;28;20411;-44
2021/06/05 07:58:48;;;;;;;2.13;1.42;;;;;;;25.77;40.12;94043.28;5103701;28;20080;-42
2021/06/05 08:01:14;;;;;;;1.05;1.02;;;;;;;25.19;42.74;94043.97;5103940;28;20039;-40
2021/06/05 08:03:39;;;;;;;1.33;1.10;;;;;;;25.60;40.77;94041.75;5105041;28;20027;-41
2021/06/05 08:06:05;;;;;;;1.58;1.45;;;;;;;26.36;39.73;94041.78;5104930;28;20016;-43
2021/06/05 08:08:30;;;;;;;7.78;2.45;;;;;;;26.43;38.70;94043.50;5104873;28;20118;-41
2021/06/05 08:10:56;;;;;;;1.42;1.20;;;;;;;26.98;37.11;94036.03;5105092;28;20028;-40
2021/06/05 08:13:22;;;;;;;2.13;1.13;;;;;;;26.67;36.63;94035.34;5104858;28;20027;-39
2021/06/05 08:15:49;;;;;;;1.83;1.55;;;;;;;27.14;36.24;94041.66;5103922;28;20066;-43
2021/06/05 08:18:15;;;;;;;1.10;1.00;;;;;;;28.42;33.37;94036.81;5101715;28;20794;-41
2021/06/05 08:20:55;;;;;;;2.45;1.92;;;;;;;29.34;33.40;94036.56;5104811;28;20036;-44
2021/06/05 08:23:21;;;;;;;1.50;1.35;;;;;;;31.07;29.37;94033.31;5103264;28;20069;-40
2021/06/05 08:25:48;;;;;;;1.25;1.10;;;;;;;32.16;28.91;94028.19;5104961;28;20037;-40
2021/06/05 08:28:15;;;;;;;1.95;1.40;;;;;;;32.98;26.49;94027.78;5101810;28;20028;-42
2021/06/05 08:30:45;;;;;;;1.05;0.95;;;;;;;34.06;24.63;94026.88;5091859;28;20032;-45
2021/06/05 08:33:12;;;;;;;0.95;0.82;;;;;;;34.84;22.99;94024.38;5090937;28;20496;-41
2021/06/05 08:35:38;;;;;;;0.88;0.85;;;;;;;34.72;21.71;94032.09;5090907;28;20070;-43
2021/06/05 08:38:05;;;;;;;1.02;0.90;;;;;;;33.36;22.63;94029.25;5090614;28;20032;-44
2021/06/05 08:40:46;;;;;;;2.13;1.02;;;;;;;31.80;26.00;94026.59;5088583;28;20031;-41
2021/06/05 08:43:18;;;;;;;2.33;1.35;;;;;;;31.02;27.93;94028.91;5090682;28;20027;-43
2021/06/05 08:45:43;;;;;;;1.65;1.20;;;;;;;31.20;27.93;94020.84;5089582;28;20058;-41
2021/06/05 08:48:15;;;;;;;1.77;1.15;;;;;;;31.77;24.63;94019.41;5090660;28;20062;-42
2021/06/05 08:50:41;;;;;;;1.58;0.90;;;;;;;32.06;25.93;94019.41;5091017;28;20027;-41
2021/06/05 08:53:22;;;;;;;2.03;1.30;;;;;;;32.42;24.25;94013.75;5090447;28;20027;-42
2021/06/05 08:55:59;;;;;;;0.93;0.93;;;;;;;32.85;23.13;94012.53;5088612;28;20040;-42
2021/06/05 08:58:32;;;;;;;2.17;1.13;;;;;;;33.74;21.97;94012.03;5090409;28;20511;-42
2021/06/05 09:01:18;;;;;;;1.02;0.93;;;;;;;33.80;20.13;94011.38;5089244;28;20020;-43
2021/06/05 09:03:46;;;;;;;0.65;0.65;;;;;;;34.42;19.81;94006.59;5089396;28;20310;-43
2021/06/05 09:06:25;;;;;;;1.58;1.00;;;;;;;34.52;20.60;93995.31;5090431;28;20167;-43
2021/06/05 09:08:51;;;;;;;2.25;0.95;;;;;;;34.55;20.01;94007.50;5089803;28;20406;-41
2021/06/05 09:11:17;;;;;;;3.40;1.77;;;;;;;35.58;20.25;94001.53;5090079;28;20024;-45
2021/06/05 09:13:43;;;;;;;3.45;1.10;;;;;;;35.50;19.97;94001.44;5090081;28;20024;-42
2021/06/05 09:16:24;;;;;;;1.50;0.90;;;;;;;35.77;20.38;93993.75;5089796;28;20062;-44
2021/06/05 09:19:02;;;;;;;0.77;0.77;;;;;;;36.43;19.16;93991.38;5089450;28;20461;-41
2021/06/05 09:21:32;;;;;;;;;;;;;;;36.50;19.08;93986.38;5089996;28;20050;-43
2021/06/05 09:24:22;;;;;;;0.75;0.75;;;;;;;35.97;19.92;93979.59;5086741;28;19908;-44
2021/06/05 09:27:05;;;;;;;4.90;1.90;;;;;;;36.18;20.16;93974.66;5089402;28;20063;-45
2021/06/05 09:29:31;;;;;;;0.70;0.70;;;;;;;36.48;19.42;93977.72;5089708;28;20080;-42
2021/06/05 09:32:00;;;;;;;1.02;0.70;;;;;;;35.30;18.56;93951.69;5088189;28;20035;-43
2021/06/05 09:34:33;;;;;;;0.70;0.70;;;;;;;34.67;19.98;93976.84;5089716;28;20027;-45
2021/06/05 09:36:58;;;;;;;1.02;0.93;;;;;;;34.26;19.92;93972.69;5088002;28;20051;-42
2021/06/05 09:39:40;;;;;;;1.83;1.17;;;;;;;35.34;20.40;93972.56;5089992;28;20491;-44
2021/06/05 09:42:09;;;;;;;1.00;0.75;;;;;;;35.26;19.55;93960.28;5087833;28;20027;-43
2021/06/05 09:44:40;;;;;;;2.35;1.15;;;;;;;36.11;19.32;93968.16;5085937;28;20088;-45
2021/06/05 09:47:19;;;;;;;0.73;0.73;;;;;;;35.82;17.71;93962.91;5088889;28;20024;-45
2021/06/05 09:49:47;;;;;;;0.70;0.70;;;;;;;36.34;20.09;93966.16;5087573;28;20051;-44
2021/06/05 09:52:34;;;;;;;2.03;1.00;;;;;;;36.14;17.88;93958.13;5086021;28;20127;-42
2021/06/05 09:55:26;;;;;;;0.82;0.82;;;;;;;36.37;19.70;93961.84;5085371;28;20036;-43
2021/06/05 09:57:52;;;;;;;0.90;0.90;;;;;;;36.75;20.81;93962.03;5088167;28;20043;-44
2021/06/05 10:00:27;;;;;;;1.33;1.23;;;;;;;37.06;18.09;93959.97;5085477;28;20032;-44
2021/06/05 10:03:12;;;;;;;0.93;0.80;;;;;;;37.31;18.14;93947.09;5089069;28;20110;-43
2021/06/05 10:05:42;;;;;;;0.98;0.90;;;;;;;38.18;17.88;93950.69;5084221;28;20119;-44
2021/06/05 10:08:28;;;;;;;1.20;1.10;;;;;;;37.22;18.05;93955.00;5083705;28;20081;-42
2021/06/05 10:11:09;;;;;;;1.95;0.90;;;;;;;36.23;19.08;93953.88;5086978;28;20093;-46
2021/06/05 10:13:39;;;;;;;2.08;1.20;;;;;;;36.02;20.10;93952.28;5086471;28;20034;-43
2021/06/05 10:16:14;;;;;;;5.20;1.20;;;;;;;34.97;19.71;93950.63;5087521;28;20115;-46
2021/06/05 10:18:45;;;;;;;1.35;1.00;;;;;;;34.19;21.34;93948.25;5084196;28;20057;-45
2021/06/05 10:21:14;;;;;;;1.30;1.00;;;;;;;33.46;21.48;93940.66;5088141;28;20047;-45
2021/06/05 10:23:44;;;;;;;0.95;0.95;;;;;;;33.02;22.10;93939.19;5088834;28;20055;-46
2021/06/05 10:26:34;;;;;;;0.90;0.90;;;;;;;32.67;21.29;93934.94;5087818;28;20024;-48
2021/06/05 10:29:12;;;;;;;1.05;0.95;;;;;;;32.34;21.58;93932.81;5086024;28;20020;-43
2021/06/05 10:31:39;;;;;;;;;;;;;;;33.13;22.60;93935.81;5085884;28;20114;-44
2021/06/05 10:34:20;;;;;;;0.95;0.80;;;;;;;33.31;21.04;93938.28;5087329;28;19912;-43
2021/06/05 10:36:52;;;;;;;0.80;0.80;;;;;;;32.56;22.47;93945.47;5087425;28;20421;-45
2021/06/05 10:39:28;;;;;;;1.40;1.20;;;;;;;31.60;24.26;93955.47;5087427;28;20031;-43
2021/06/05 10:42:18;;;;;;;1.77;1.48;;;;;;;30.74;26.31;93945.44;5087918;28;20024;-41
2021/06/05 10:44:43;;;;;;;3.55;1.42;;;;;;;30.03;26.39;93942.69;5076086;28;20500;-46
2021/06/05 10:47:16;;;;;;;1.20;1.10;;;;;;;29.45;28.10;93947.31;5087766;28;20032;-45
2021/06/05 10:49:51;;;;;;;1.95;1.20;;;;;;;28.72;26.54;93941.31;5087422;28;20065;-44
2021/06/05 10:52:32;;;;;;;2.97;1.35;;;;;;;28.62;26.61;93937.41;5084082;28;20851;-44
2021/06/05 10:55:11;;;;;;;1.33;1.23;;;;;;;27.97;25.87;93943.59;5085493;28;20514;-44
2021/06/05 10:57:45;;;;;;;1.20;1.10;;;;;;;27.38;28.79;93934.91;5081483;28;20032;-42
2021/06/05 11:00:41;;;;;;;3.40;1.20;;;;;;;26.97;27.25;93938.22;5087434;28;20035;-46
2021/06/05 11:03:08;;;;;;;22.98;8.93;;;;;;;26.82;29.70;93929.78;5086828;28;20016;-43
2021/06/05 11:05:35;;;;;;;2.42;2.00;;;;;;;26.72;28.79;93935.75;5087818;28;20032;-44
2021/06/05 11:08:10;;;;;;;1.70;1.50;;;;;;;27.10;29.18;93919.59;5087482;28;20028;-44
2021/06/05 11:10:44;;;;;;;7.63;2.90;;;;;;;27.86;29.06;93919.00;5087538;28;20039;-43
2021/06/05 11:13:09;;;;;;;1.25;1.15;;;;;;;28.76;26.14;93913.03;5085866;28;20769;-45
2021/06/05 11:15:58;;;;;;;3.30;1.90;;;;;;;29.46;28.13;93913.88;5087522;28;20119;-42
2021/06/05 11:18:45;;;;;;;1.30;0.90;;;;;;;30.11;25.64;93917.31;5083329;28;20138;-42
2021/06/05 11:21:20;;;;;;;1.10;1.00;;;;;;;30.73;24.62;93924.03;5084695;28;20034;-42
2021/06/05 11:23:57;;;;;;;1.02;0.93;;;;;;;30.63;24.56;93915.19;5087743;28;20085;-41
2021/06/05 11:26:38;;;;;;;1.03;0.97;;;;;;;29.77;26.46;93902.81;5087420;28;20049;-43
2021/06/05 11:29:19;;;;;;;0.80;0.80;;;;;;;28.67;27.38;93904.91;5087420;28;20429;-42
2021/06/05 11:31:48;;;;;;;1.88;1.02;;;;;;;27.87;26.63;93906.28;5087099;28;20069;-44
2021/06/05 11:34:28;;;;;;;1.38;1.27;;;;;;;27.25;26.79;93895.34;5087223;28;20028;-42
2021/06/05 11:37:14;;;;;;;1.85;1.05;;;;;;;27.22;28.64;93899.50;5086851;28;20035;-42
2021/06/05 11:39:46;;;;;;;1.10;1.00;;;;;;;27.18;29.17;93900.06;5053635;28;20104;-41
2021/06/05 11:42:23;;;;;;;1.42;1.33;;;;;;;26.81;28.22;93894.34;5088069;28;20030;-41
2021/06/05 11:45:01;;;;;;;4.97;1.27;;;;;;;26.84;30.61;93893.03;5085843;28;20554;-41
2021/06/05 11:47:27;;;;;;;1.52;1.38;;;;;;;26.97;30.96;93887.19;5085728;28;20024;-41
2021/06/05 11:50:01;;;;;;;2.05;1.00;;;;;;;27.01;27.12;93887.34;5087921;28;20016;-44